Time;durP1;ratioP1;P1;durP2;ratioP2;P2;SDS_P1;SDS_P2;PMS_P1;PMS_P2;Temp;Humidity;BMP_temperature;BMP_pressure;BME280_temperature;BME280_humidity;BME280_pressure;Samples;Min_cycle;Max_cycle;Signal;HPM_P1;HPM_P2
2022/04/22 00:01:28;;;;;;;10.30;7.20;;;;;;;7.94;100.00;100466.36;105010;1276;72473;-73
2022/04/22 00:03:56;;;;;;;11.80;7.10;;;;;;;7.93;100.00;100466.20;105132;1274;74243;-71
2022/04/22 00:06:23;;;;;;;13.40;8.40;;;;;;;7.90;100.00;100466.83;105048;1276;62913;-72
2022/04/22 00:08:49;;;;;;;14.40;8.60;;;;;;;7.87;100.00;100467.11;105020;1275;61280;-72
2022/04/22 00:11:31;;;;;;;13.00;7.40;;;;;;;7.84;100.00;100464.10;105159;1276;61147;-72
2022/04/22 00:14:04;;;;;;;10.70;7.00;;;;;;;7.81;100.00;100463.73;105053;1276;72412;-72
2022/04/22 00:16:32;;;;;;;10.60;6.50;;;;;;;7.78;100.00;100459.11;105011;1276;72517;-74
2022/04/22 00:18:59;;;;;;;11.40;7.20;;;;;;;7.76;100.00;100461.77;105102;1273;61236;-72
2022/04/22 00:21:29;;;;;;;12.70;7.80;;;;;;;7.74;100.00;100460.58;105101;1274;61144;-72
2022/04/22 00:23:55;;;;;;;12.20;8.20;;;;;;;7.71;100.00;100455.37;105027;1276;74911;-73
2022/04/22 00:26:22;;;;;;;11.10;7.50;;;;;;;7.70;100.00;100450.81;105049;1274;72344;-73
2022/04/22 00:28:49;;;;;;;10.80;7.10;;;;;;;7.68;100.00;100449.25;105030;1276;61364;-71
2022/04/22 00:31:16;;;;;;;13.00;7.60;;;;;;;7.65;100.00;100444.07;105204;1273;61572;-71
2022/04/22 00:33:42;;;;;;;11.40;6.90;;;;;;;7.63;100.00;100443.66;105031;1275;61372;-72
2022/04/22 00:36:09;;;;;;;12.70;8.30;;;;;;;7.59;100.00;100440.69;105065;1276;77533;-72
2022/04/22 00:38:36;;;;;;;14.80;9.80;;;;;;;7.55;100.00;100440.60;105054;1274;72589;-72
2022/04/22 00:41:05;;;;;;;11.40;7.20;;;;;;;7.50;100.00;100441.42;105056;1276;73952;-70
2022/04/22 00:43:44;;;;;;;11.20;7.30;;;;;;;7.45;100.00;100443.02;105095;1276;62461;-74
2022/04/22 00:46:12;;;;;;;16.50;9.50;;;;;;;7.39;100.00;100441.73;105128;1276;61372;-72
2022/04/22 00:48:39;;;;;;;12.30;8.20;;;;;;;7.34;100.00;100440.79;105095;1276;76034;-72
2022/04/22 00:51:08;;;;;;;12.80;8.00;;;;;;;7.29;100.00;100438.36;105085;1277;71451;-71
2022/04/22 00:53:40;;;;;;;11.80;8.50;;;;;;;7.24;100.00;100432.57;105174;1276;74172;-72
2022/04/22 00:56:13;;;;;;;15.40;8.90;;;;;;;7.19;100.00;100430.11;105080;1276;61469;-73
2022/04/22 00:58:42;;;;;;;16.50;9.90;;;;;;;7.13;100.00;100425.97;105055;1276;61255;-74
2022/04/22 01:01:11;;;;;;;11.80;7.70;;;;;;;7.09;100.00;100422.00;105090;1276;74703;-71
2022/04/22 01:03:39;;;;;;;14.30;7.50;;;;;;;7.05;100.00;100414.16;105337;1276;70908;-74
2022/04/22 01:11:39;;;;;;;9.70;6.70;;;;;;;7.00;100.00;100412.58;104988;1276;61670;-72
2022/04/22 01:14:07;;;;;;;12.10;7.80;;;;;;;7.01;100.00;100405.95;105074;1276;74883;-72
2022/04/22 01:16:34;;;;;;;13.40;9.00;;;;;;;7.01;100.00;100403.63;105259;1273;71337;-73
2022/04/22 01:19:01;;;;;;;11.80;8.00;;;;;;;7.01;100.00;100401.33;105167;1274;74268;-74
2022/04/22 01:21:28;;;;;;;12.90;7.90;;;;;;;7.02;100.00;100400.55;104943;1276;62441;-71
2022/04/22 01:23:54;;;;;;;15.60;9.00;;;;;;;7.03;100.00;100395.86;105030;1276;61652;-71
2022/04/22 01:26:21;;;;;;;12.30;8.50;;;;;;;7.04;100.00;100395.61;105109;1274;76312;-73
2022/04/22 01:28:48;;;;;;;11.20;7.40;;;;;;;7.05;100.00;100395.70;105041;1276;70255;-71
2022/04/22 01:31:14;;;;;;;14.40;8.60;;;;;;;7.04;100.00;100392.46;105124;1274;73078;-72
2022/04/22 01:33:41;;;;;;;14.20;8.50;;;;;;;7.03;100.00;100392.86;105038;1273;61822;-71
2022/04/22 01:36:08;;;;;;;15.00;8.90;;;;;;;7.02;100.00;100391.38;105171;1276;61338;-73
2022/04/22 01:38:35;;;;;;;12.40;8.00;;;;;;;7.01;100.00;100389.95;104986;1277;75215;-71
2022/04/22 01:41:06;;;;;;;10.40;7.50;;;;;;;6.99;100.00;100385.76;105104;1274;73201;-72
2022/04/22 01:43:34;;;;;;;15.60;9.80;;;;;;;6.97;100.00;100382.59;105037;1276;74020;-71
2022/04/22 01:46:01;;;;;;;11.50;7.60;;;;;;;6.95;100.00;100380.66;105036;1276;61913;-72
2022/04/22 01:48:32;;;;;;;13.90;9.50;;;;;;;6.92;100.00;100375.15;105069;1274;62000;-74
2022/04/22 01:50:58;;;;;;;13.20;8.40;;;;;;;6.90;100.00;100377.88;105024;1276;75379;-72
2022/04/22 01:53:25;;;;;;;13.00;8.40;;;;;;;6.88;100.00;100382.81;104995;1276;72477;-71
2022/04/22 01:55:52;;;;;;;16.50;9.40;;;;;;;6.84;100.00;100376.88;105130;1276;72748;-73
2022/04/22 01:58:19;;;;;;;11.10;6.80;;;;;;;6.82;100.00;100377.98;105223;1274;61434;-71
2022/04/22 02:00:46;;;;;;;11.60;7.50;;;;;;;6.80;100.00;100377.48;105051;1276;61401;-71
2022/04/22 02:03:12;;;;;;;14.20;7.40;;;;;;;6.80;100.00;100371.19;105134;1276;74999;-74
2022/04/22 02:05:40;;;;;;;9.10;6.00;;;;;;;6.81;100.00;100371.58;105145;1275;71443;-70
2022/04/22 02:08:07;;;;;;;11.00;6.20;;;;;;;6.84;100.00;100369.32;105138;1274;73043;-70
2022/04/22 02:10:34;;;;;;;10.00;6.60;;;;;;;6.87;100.00;100368.10;105032;1276;61317;-71
2022/04/22 02:13:00;;;;;;;9.70;7.10;;;;;;;6.90;100.00;100363.41;105058;1276;61349;-72
2022/04/22 02:15:28;;;;;;;10.90;6.90;;;;;;;6.95;100.00;100362.20;105037;1274;75157;-72
2022/04/22 02:17:54;;;;;;;8.30;5.60;;;;;;;7.00;100.00;100361.03;105012;1274;71372;-71
2022/04/22 02:20:22;;;;;;;10.30;7.00;;;;;;;7.04;100.00;100360.81;105305;1274;73244;-71
2022/04/22 02:22:48;;;;;;;10.20;6.40;;;;;;;7.07;100.00;100359.02;105066;1276;61519;-72
2022/04/22 02:25:15;;;;;;;9.50;6.90;;;;;;;7.11;100.00;100357.39;105074;1276;61368;-70
2022/04/22 02:30:28;;;;;;;;;;;;;;;7.19;100.00;100354.26;105182;1276;71410;-70
2022/04/22 02:32:56;;;;;;;10.60;5.30;;;;;;;7.22;100.00;100355.86;105103;1275;73122;-73
2022/04/22 02:35:22;;;;;;;10.30;5.30;;;;;;;7.25;100.00;100354.84;104962;1276;62696;-75
2022/04/22 02:37:50;;;;;;;6.60;4.40;;;;;;;7.28;100.00;100352.94;105007;1274;62043;-73
2022/04/22 02:45:49;;;;;;;8.70;4.40;;;;;;;7.33;100.00;100344.52;104949;1276;72965;-73
2022/04/22 02:48:16;;;;;;;6.30;2.80;;;;;;;7.34;100.00;100340.73;104941;1276;61336;-73
2022/04/22 02:50:44;;;;;;;8.40;3.30;;;;;;;7.34;99.56;100342.69;104979;1276;61244;-73
2022/04/22 02:53:11;;;;;;;4.60;2.90;;;;;;;7.34;97.79;100344.27;105042;1275;73780;-71
2022/04/22 02:55:44;;;;;;;5.00;2.80;;;;;;;7.34;97.17;100342.89;104996;1275;61300;-73
2022/04/22 02:58:11;;;;;;;7.60;3.20;;;;;;;7.34;97.25;100341.11;105017;1276;74242;-72
2022/04/22 03:00:37;;;;;;;4.40;2.70;;;;;;;7.33;96.84;100340.63;105188;1274;61418;-73
2022/04/22 03:03:04;;;;;;;5.60;2.50;;;;;;;7.34;96.23;100337.42;105118;1274;61250;-72
2022/04/22 03:05:31;;;;;;;4.70;2.50;;;;;;;7.33;95.61;100336.59;105032;1275;76176;-75
2022/04/22 03:07:58;;;;;;;3.60;2.40;;;;;;;7.33;95.25;100329.02;105133;1272;70924;-71
2022/04/22 03:10:24;;;;;;;4.10;2.40;;;;;;;7.33;94.83;100326.45;105049;1276;73977;-72
2022/04/22 03:12:51;;;;;;;4.90;2.20;;;;;;;7.32;94.19;100325.50;104968;1276;61372;-71
2022/04/22 03:15:18;;;;;;;4.40;2.50;;;;;;;7.30;93.50;100325.27;105458;1274;61143;-70
2022/04/22 03:17:44;;;;;;;3.40;1.80;;;;;;;7.28;92.33;100325.70;105138;1274;74936;-75
2022/04/22 03:20:11;;;;;;;3.30;2.30;;;;;;;7.25;90.93;100324.14;105177;1273;61355;-71
2022/04/22 03:22:37;;;;;;;4.20;1.60;;;;;;;7.23;90.50;100325.00;105018;1276;73715;-72
2022/04/22 03:25:04;;;;;;;4.40;2.20;;;;;;;7.21;90.10;100323.14;105103;1275;61187;-72
2022/04/22 03:27:31;;;;;;;3.60;1.70;;;;;;;7.19;89.70;100319.94;105042;1276;61664;-71
2022/04/22 03:29:58;;;;;;;4.80;2.00;;;;;;;7.18;89.46;100317.08;105052;1274;74930;-72
2022/04/22 03:32:25;;;;;;;4.20;2.10;;;;;;;7.17;89.06;100313.73;105037;1276;70599;-72
2022/04/22 03:34:51;;;;;;;4.00;2.40;;;;;;;7.16;89.15;100314.00;105177;1274;74196;-72
2022/04/22 03:37:18;;;;;;;3.10;2.00;;;;;;;7.15;89.08;100313.25;105123;1276;61280;-72
2022/04/22 03:39:44;;;;;;;2.70;1.80;;;;;;;7.13;89.01;100311.33;105088;1276;61280;-72
2022/04/22 03:42:12;;;;;;;3.70;1.70;;;;;;;7.13;89.33;100312.39;105145;1274;61246;-71
2022/04/22 03:44:38;;;;;;;4.30;1.80;;;;;;;7.12;89.28;100317.75;105059;1275;72776;-73
2022/04/22 03:47:07;;;;;;;4.40;2.10;;;;;;;7.11;89.65;100315.02;105115;1275;72990;-71
2022/04/22 03:49:33;;;;;;;4.30;2.30;;;;;;;7.11;89.84;100316.30;105359;1274;62661;-72
2022/04/22 03:52:00;;;;;;;3.50;2.20;;;;;;;7.11;89.70;100312.45;105156;1274;61382;-72
2022/04/22 03:54:27;;;;;;;3.50;2.30;;;;;;;7.11;90.13;100311.65;105279;1274;74783;-73
2022/04/22 03:59:39;;;;;;;3.20;1.70;;;;;;;7.10;89.82;100306.87;105133;1275;72999;-70
2022/04/22 04:02:05;;;;;;;4.50;2.10;;;;;;;7.08;89.82;100318.79;105117;1276;61355;-72
2022/04/22 04:04:32;;;;;;;9.30;2.00;;;;;;;7.07;89.68;100321.56;105057;1275;61924;-72
2022/04/22 04:06:59;;;;;;;4.40;2.50;;;;;;;7.07;89.95;100322.81;105147;1274;76153;-71
2022/04/22 04:17:42;;;;;;;3.70;2.00;;;;;;;7.00;88.54;100319.34;105083;1276;61266;-74
2022/04/22 04:25:40;;;;;;;3.50;2.10;;;;;;;6.90;87.85;100326.71;105010;1276;73472;-71
2022/04/22 04:28:09;;;;;;;4.40;2.00;;;;;;;6.88;88.06;100328.98;105211;1276;62656;-73
2022/04/22 04:30:40;;;;;;;4.20;2.00;;;;;;;6.87;88.14;100324.34;105312;1277;61721;-71
2022/04/22 04:33:09;;;;;;;4.90;2.10;;;;;;;6.88;87.84;100325.30;105030;1274;75142;-70
2022/04/22 04:35:37;;;;;;;6.60;2.00;;;;;;;6.89;87.49;100324.71;104999;1277;72947;-73
2022/04/22 04:38:04;;;;;;;3.40;1.90;;;;;;;6.87;86.96;100326.12;105010;1274;74068;-72
2022/04/22 04:40:32;;;;;;;3.60;1.80;;;;;;;6.87;87.12;100326.13;105080;1275;61672;-73
2022/04/22 04:43:00;;;;;;;4.00;2.00;;;;;;;6.88;86.88;100324.41;104954;1275;61452;-70
2022/04/22 04:45:29;;;;;;;3.00;2.10;;;;;;;6.88;86.59;100323.19;104992;1276;76000;-71
2022/04/22 04:47:56;;;;;;;4.20;2.30;;;;;;;6.88;86.42;100322.16;105013;1274;72430;-70
2022/04/22 04:50:23;;;;;;;2.50;1.60;;;;;;;6.86;86.26;100320.11;105118;1273;73176;-70
2022/04/22 04:52:50;;;;;;;3.90;1.40;;;;;;;6.84;86.12;100315.89;105066;1274;61346;-71
2022/04/22 04:55:16;;;;;;;3.40;1.70;;;;;;;6.83;86.03;100313.25;105085;1273;61291;-71
2022/04/22 04:57:48;;;;;;;5.70;2.10;;;;;;;6.80;85.69;100310.32;105059;1273;76425;-73
2022/04/22 05:00:23;;;;;;;5.00;2.20;;;;;;;6.78;85.84;100306.52;105080;1275;71332;-72
2022/04/22 05:02:50;;;;;;;4.20;2.80;;;;;;;6.76;86.07;100302.48;104985;1274;73391;-70
2022/04/22 05:05:17;;;;;;;5.20;2.40;;;;;;;6.76;85.90;100298.30;105010;1275;61487;-71
2022/04/22 05:08:04;;;;;;;3.40;1.80;;;;;;;6.76;86.03;100299.00;105168;1275;61491;-70
2022/04/22 05:10:32;;;;;;;3.80;2.20;;;;;;;6.77;86.09;100295.78;105274;1275;76125;-70
2022/04/22 05:13:00;;;;;;;4.90;2.30;;;;;;;6.79;86.15;100294.99;105072;1275;72424;-71
2022/04/22 05:15:28;;;;;;;5.60;3.00;;;;;;;6.81;86.01;100286.55;105083;1274;74005;-71
2022/04/22 05:17:56;;;;;;;4.60;1.90;;;;;;;6.84;86.13;100292.17;104960;1275;61969;-71
2022/04/22 05:20:26;;;;;;;4.30;1.80;;;;;;;6.86;85.89;100289.10;105001;1277;61221;-73
2022/04/22 05:22:54;;;;;;;3.80;2.10;;;;;;;6.88;85.64;100292.60;105014;1276;76146;-70
2022/04/22 05:25:22;;;;;;;4.50;2.10;;;;;;;6.87;85.73;100292.02;105155;1276;71365;-70
2022/04/22 05:27:49;;;;;;;12.00;8.10;;;;;;;6.87;85.54;100298.34;105038;1275;73999;-72
2022/04/22 05:33:03;;;;;;;3.70;2.40;;;;;;;6.92;85.47;100301.70;105163;1274;61231;-72
2022/04/22 05:35:30;;;;;;;7.20;3.50;;;;;;;6.93;85.57;100304.79;105158;1274;73699;-72
2022/04/22 05:38:03;;;;;;;6.10;2.30;;;;;;;6.94;85.51;100304.29;104959;1275;72850;-73
2022/04/22 05:40:33;;;;;;;7.40;2.40;;;;;;;6.97;85.56;100304.40;105056;1276;71712;-71
2022/04/22 05:43:00;;;;;;;3.50;1.80;;;;;;;6.98;85.16;100310.14;105000;1275;61291;-72
2022/04/22 05:45:27;;;;;;;7.90;2.20;;;;;;;6.99;85.25;100310.88;105117;1274;61274;-71
2022/04/22 05:47:58;;;;;;;4.30;2.50;;;;;;;7.00;85.11;100308.09;104829;1275;75966;-72
2022/04/22 05:50:26;;;;;;;4.10;1.90;;;;;;;7.01;84.91;100312.21;104926;1274;71390;-72
2022/04/22 05:52:53;;;;;;;8.80;2.00;;;;;;;7.00;84.70;100311.16;104917;1275;73050;-70
2022/04/22 05:55:23;;;;;;;4.90;2.20;;;;;;;7.00;84.55;100312.90;104976;1274;61587;-72
2022/04/22 05:57:52;;;;;;;2.90;1.50;;;;;;;7.00;84.43;100313.01;104938;1277;62092;-69
2022/04/22 06:00:24;;;;;;;3.90;2.10;;;;;;;7.02;84.39;100314.10;104920;1277;74703;-70
2022/04/22 06:02:52;;;;;;;4.90;2.70;;;;;;;7.05;84.42;100312.85;104896;1277;71609;-73
2022/04/22 06:05:22;;;;;;;4.80;2.50;;;;;;;7.10;84.32;100309.50;104948;1275;74003;-70
2022/04/22 06:10:37;;;;;;;3.70;2.40;;;;;;;7.19;84.01;100313.45;105069;1277;61610;-68
2022/04/22 06:13:05;;;;;;;6.40;2.80;;;;;;;7.28;83.80;100315.67;104862;1276;74997;-71
2022/04/22 06:15:32;;;;;;;8.10;2.80;;;;;;;7.39;83.89;100321.46;104899;1277;72597;-75
2022/04/22 06:18:07;;;;;;;4.20;2.40;;;;;;;7.47;83.85;100319.16;105050;1277;73460;-71
2022/04/22 06:20:34;;;;;;;4.70;2.70;;;;;;;7.54;83.73;100317.55;104906;1277;62597;-69
2022/04/22 06:23:00;;;;;;;5.10;2.40;;;;;;;7.58;83.31;100314.15;104888;1277;61674;-69
2022/04/22 06:25:28;;;;;;;5.80;2.80;;;;;;;7.60;82.82;100316.33;104985;1277;75021;-70
2022/04/22 06:27:55;;;;;;;5.30;2.00;;;;;;;7.64;82.87;100313.61;104962;1277;71260;-71
2022/04/22 06:30:24;;;;;;;4.80;2.70;;;;;;;7.68;82.71;100308.41;104925;1278;73104;-71
2022/04/22 06:32:52;;;;;;;6.40;3.30;;;;;;;7.74;82.48;100312.35;104946;1274;61246;-70
2022/04/22 06:35:22;;;;;;;6.60;2.80;;;;;;;7.78;82.23;100311.36;105063;1277;62655;-72
2022/04/22 06:37:52;;;;;;;4.10;2.80;;;;;;;7.85;81.62;100304.70;104906;1277;74452;-69
2022/04/22 06:45:52;;;;;;;8.50;3.20;;;;;;;8.00;80.72;100299.36;104994;1274;61520;-69
2022/04/22 06:48:19;;;;;;;11.70;3.50;;;;;;;8.05;80.59;100295.45;104950;1277;61248;-71
2022/04/22 06:51:06;;;;;;;6.80;3.20;;;;;;;8.08;80.19;100295.25;104930;1277;77023;-69
2022/04/22 06:53:35;;;;;;;8.90;2.90;;;;;;;8.15;80.18;100301.25;104933;1274;71624;-70
2022/04/22 06:56:08;;;;;;;5.70;3.30;;;;;;;8.15;80.26;100303.81;105405;1274;72019;-70
2022/04/22 06:58:38;;;;;;;7.90;3.50;;;;;;;8.19;80.24;100302.55;104801;1276;61723;-73
2022/04/22 07:01:07;;;;;;;10.20;4.00;;;;;;;8.23;80.06;100304.23;105014;1276;61103;-70
2022/04/22 07:03:54;;;;;;;8.70;3.00;;;;;;;8.29;79.90;100306.36;105107;1277;75243;-70
2022/04/22 07:06:21;;;;;;;6.10;3.50;;;;;;;8.37;79.73;100308.52;104943;1275;72189;-70
2022/04/22 07:08:49;;;;;;;9.50;4.00;;;;;;;8.51;79.44;100307.90;104872;1275;72975;-72
2022/04/22 07:11:27;;;;;;;6.40;3.10;;;;;;;8.60;79.45;100310.91;105044;1277;62002;-69
2022/04/22 07:13:55;;;;;;;9.20;4.00;;;;;;;8.63;78.95;100302.70;104899;1277;61934;-70
2022/04/22 07:16:22;;;;;;;5.90;3.30;;;;;;;8.63;78.89;100301.65;104855;1276;74426;-71
2022/04/22 07:18:51;;;;;;;5.50;3.50;;;;;;;8.66;78.67;100303.39;104849;1275;72548;-70
2022/04/22 07:21:20;;;;;;;7.00;4.40;;;;;;;8.71;78.14;100303.17;104960;1277;73162;-70
2022/04/22 07:23:47;;;;;;;7.20;3.90;;;;;;;8.79;77.95;100303.84;104888;1278;62363;-70
2022/04/22 07:26:16;;;;;;;13.30;4.50;;;;;;;8.84;76.94;100303.84;104928;1276;61413;-70
2022/04/22 07:28:47;;;;;;;7.60;4.30;;;;;;;8.92;77.55;100302.54;104922;1277;74784;-71
2022/04/22 07:31:19;;;;;;;7.00;3.40;;;;;;;9.04;76.48;100300.71;104926;1277;72395;-74
2022/04/22 07:33:46;;;;;;;10.00;4.60;;;;;;;9.05;76.43;100300.02;105101;1274;73898;-71
2022/04/22 07:36:14;;;;;;;9.80;3.50;;;;;;;9.06;76.38;100294.98;104863;1277;62408;-72
2022/04/22 07:38:41;;;;;;;5.90;3.60;;;;;;;9.02;75.57;100294.91;104976;1274;61249;-69
2022/04/22 07:41:09;;;;;;;6.20;3.60;;;;;;;9.02;76.05;100291.88;105038;1274;75023;-73
2022/04/22 07:49:09;;;;;;;8.10;3.40;;;;;;;9.02;75.84;100288.03;105041;1274;62713;-73
2022/04/22 07:51:35;;;;;;;6.80;3.80;;;;;;;9.01;75.27;100291.46;104935;1276;61106;-72
2022/04/22 07:54:02;;;;;;;6.70;3.90;;;;;;;9.05;75.82;100297.39;105132;1276;76223;-69
2022/04/22 07:56:29;;;;;;;6.60;4.30;;;;;;;9.05;75.27;100297.19;104857;1277;72388;-70
2022/04/22 07:58:56;;;;;;;5.50;3.80;;;;;;;8.99;75.45;100300.67;104962;1275;61235;-69
2022/04/22 08:01:23;;;;;;;8.00;4.00;;;;;;;8.99;75.98;100300.55;104979;1275;63528;-71
2022/04/22 08:03:50;;;;;;;6.30;3.70;;;;;;;9.05;76.00;100301.83;104972;1274;61379;-72
2022/04/22 08:06:17;;;;;;;6.90;3.50;;;;;;;9.28;76.65;100298.67;105034;1274;61359;-71
2022/04/22 08:08:44;;;;;;;6.60;3.70;;;;;;;9.54;75.63;100298.35;104944;1275;71557;-71
2022/04/22 08:11:10;;;;;;;7.00;4.00;;;;;;;9.61;74.27;100301.17;104870;1276;72926;-71
2022/04/22 08:13:37;;;;;;;9.10;4.20;;;;;;;9.56;74.27;100296.77;104884;1276;61371;-73
2022/04/22 08:16:06;;;;;;;7.80;3.40;;;;;;;9.59;74.32;100301.91;105058;1274;60614;-71
2022/04/22 08:18:33;;;;;;;8.50;4.70;;;;;;;9.58;73.62;100304.95;104835;1277;76232;-71
2022/04/22 08:21:00;;;;;;;10.40;4.40;;;;;;;9.52;73.73;100301.70;104955;1276;70229;-73
2022/04/22 08:23:27;;;;;;;5.60;3.90;;;;;;;9.44;73.67;100300.67;105058;1274;73118;-71
2022/04/22 08:25:53;;;;;;;9.50;4.50;;;;;;;9.38;73.45;100307.98;105064;1274;61298;-70
2022/04/22 08:28:20;;;;;;;10.00;4.70;;;;;;;9.43;74.12;100309.78;105070;1275;61690;-72
2022/04/22 08:30:47;;;;;;;10.60;4.80;;;;;;;9.55;74.25;100306.95;104995;1275;61342;-73
2022/04/22 08:33:16;;;;;;;9.70;4.20;;;;;;;9.70;73.71;100304.78;104960;1276;71104;-70
2022/04/22 08:35:52;;;;;;;8.00;4.70;;;;;;;9.77;73.36;100301.06;105096;1274;74155;-71
2022/04/22 08:38:18;;;;;;;7.20;4.70;;;;;;;9.73;72.12;100305.38;104928;1276;62888;-71
2022/04/22 08:40:46;;;;;;;5.80;4.00;;;;;;;9.74;72.28;100308.55;104994;1274;61335;-74
2022/04/22 08:43:14;;;;;;;7.80;4.80;;;;;;;9.98;73.05;100317.04;104852;1276;74870;-72
2022/04/22 08:45:40;;;;;;;8.40;4.70;;;;;;;10.36;72.62;100311.17;104959;1276;71318;-68
2022/04/22 08:50:56;;;;;;;7.20;4.20;;;;;;;11.10;70.35;100305.59;104975;1276;62352;-74
2022/04/22 08:53:27;;;;;;;6.80;3.80;;;;;;;11.23;68.33;100299.56;104894;1276;62366;-70
2022/04/22 08:55:57;;;;;;;9.30;5.00;;;;;;;11.22;67.78;100294.05;104938;1276;76021;-73
2022/04/22 08:58:26;;;;;;;9.40;5.00;;;;;;;11.06;67.25;100287.27;105062;1274;70770;-73
2022/04/22 09:00:54;;;;;;;7.10;4.80;;;;;;;10.95;67.94;100286.36;104976;1276;72957;-70
2022/04/22 09:03:21;;;;;;;6.50;3.90;;;;;;;10.85;68.41;100292.21;105025;1276;62294;-71
2022/04/22 09:05:48;;;;;;;8.80;4.70;;;;;;;10.80;68.01;100295.29;105063;1274;61707;-74
2022/04/22 09:08:15;;;;;;;9.60;5.60;;;;;;;10.88;68.70;100297.52;104888;1275;76708;-71
2022/04/22 09:10:42;;;;;;;7.30;4.70;;;;;;;10.91;67.88;100294.25;105062;1277;72560;-73
2022/04/22 09:13:10;;;;;;;8.10;5.40;;;;;;;10.91;67.66;100295.69;104864;1276;72633;-73
2022/04/22 09:15:39;;;;;;;8.30;3.90;;;;;;;10.94;67.92;100294.27;105048;1274;62956;-70
2022/04/22 09:18:26;;;;;;;7.90;5.10;;;;;;;11.06;68.47;100293.92;104960;1276;63354;-69
2022/04/22 09:21:01;;;;;;;6.40;4.10;;;;;;;11.17;67.94;100293.98;104974;1276;76009;-71
2022/04/22 09:23:35;;;;;;;7.10;4.30;;;;;;;11.25;67.70;100282.84;105013;1277;72620;-70
2022/04/22 09:26:06;;;;;;;8.80;3.90;;;;;;;11.39;67.90;100282.53;105138;1276;72816;-71
2022/04/22 09:28:34;;;;;;;7.50;4.90;;;;;;;11.51;67.27;100283.04;104944;1276;62921;-71
2022/04/22 09:31:06;;;;;;;7.00;4.50;;;;;;;11.62;67.71;100278.34;105044;1276;61197;-70
2022/04/22 09:33:44;;;;;;;6.80;5.10;;;;;;;11.71;66.86;100283.16;104910;1275;74667;-72
2022/04/22 09:45:01;;;;;;;;;;;;;;;12.24;66.16;100270.17;104973;1276;61246;-70
2022/04/22 09:47:30;;;;;;;8.60;5.90;;;;;;;12.36;66.02;100261.11;104838;1276;77131;-71
2022/04/22 09:49:57;;;;;;;12.00;5.50;;;;;;;12.49;65.12;100263.35;105017;1276;71145;-72
2022/04/22 09:52:28;;;;;;;7.70;5.10;;;;;;;12.60;64.68;100261.83;104877;1276;74184;-72
2022/04/22 09:55:04;;;;;;;10.20;6.00;;;;;;;12.71;64.61;100263.59;104874;1276;63262;-72
2022/04/22 09:57:57;;;;;;;8.60;5.50;;;;;;;12.78;63.88;100261.03;105010;1276;61477;-70
2022/04/22 10:00:30;;;;;;;15.20;6.70;;;;;;;12.77;63.78;100254.85;105097;1277;76183;-70
2022/04/22 10:02:57;;;;;;;11.00;8.50;;;;;;;12.71;63.32;100253.31;104954;1276;72676;-72
2022/04/22 10:05:26;;;;;;;13.00;6.60;;;;;;;12.71;63.61;100252.90;104884;1277;72729;-73
2022/04/22 10:07:57;;;;;;;12.30;6.70;;;;;;;12.66;63.57;100254.77;104932;1274;61935;-72
2022/04/22 10:10:29;;;;;;;10.30;7.10;;;;;;;12.59;63.95;100250.70;104785;1274;61222;-72
2022/04/22 10:12:59;;;;;;;11.50;7.20;;;;;;;12.64;64.29;100251.91;104992;1276;74965;-72
2022/04/22 10:15:28;;;;;;;12.70;7.30;;;;;;;12.70;64.26;100249.84;104950;1276;71853;-72
2022/04/22 10:17:54;;;;;;;;;;;;;;;12.75;63.29;100250.17;105169;1274;72476;-71
2022/04/22 10:20:22;;;;;;;12.50;9.30;;;;;;;12.89;63.96;100250.91;104877;1275;61390;-74
2022/04/22 10:22:50;;;;;;;15.80;8.60;;;;;;;13.22;63.66;100248.73;105221;1276;61721;-70
2022/04/22 10:25:17;;;;;;;14.60;9.60;;;;;;;13.58;63.16;100241.01;104993;1276;74890;-71
2022/04/22 10:27:45;;;;;;;16.20;8.70;;;;;;;14.01;62.59;100239.02;104978;1276;70265;-73
2022/04/22 10:30:14;;;;;;;11.70;9.10;;;;;;;14.42;61.00;100237.19;104881;1277;72867;-72
2022/04/22 10:32:45;;;;;;;12.10;7.80;;;;;;;14.70;59.84;100235.20;104974;1277;61281;-72
2022/04/22 10:35:13;;;;;;;10.70;8.00;;;;;;;15.06;59.45;100237.66;104994;1276;61711;-72
2022/04/22 10:37:41;;;;;;;12.50;8.10;;;;;;;15.32;57.50;100242.00;104893;1276;76079;-72
2022/04/22 10:40:20;;;;;;;11.00;8.50;;;;;;;15.37;56.84;100236.66;105118;1277;72529;-72
2022/04/22 10:42:48;;;;;;;11.60;7.80;;;;;;;15.47;56.60;100238.38;104911;1276;73076;-72
2022/04/22 10:48:27;;;;;;;15.50;8.60;;;;;;;15.68;55.94;100225.30;104800;1276;61399;-72
2022/04/22 10:50:58;;;;;;;10.00;7.10;;;;;;;15.97;56.26;100221.71;105004;1274;73962;-71
2022/04/22 10:53:33;;;;;;;10.50;6.70;;;;;;;16.20;54.91;100220.27;104865;1276;71379;-72
2022/04/22 10:56:25;;;;;;;10.40;7.30;;;;;;;16.39;53.93;100219.00;104886;1276;73288;-72
2022/04/22 10:59:20;;;;;;;11.00;6.50;;;;;;;16.65;53.94;100218.35;105017;1274;61330;-72
2022/04/22 11:01:48;;;;;;;9.90;7.40;;;;;;;16.67;52.89;100217.74;104883;1276;61679;-72
2022/04/22 11:04:19;;;;;;;9.50;6.40;;;;;;;16.72;53.31;100217.30;105356;1275;74931;-72
2022/04/22 11:06:46;;;;;;;9.50;6.40;;;;;;;16.97;53.02;100210.84;104922;1274;72440;-72
2022/04/22 11:09:27;;;;;;;9.00;7.40;;;;;;;17.17;52.25;100210.86;104975;1274;73422;-72
2022/04/22 11:11:55;;;;;;;10.60;6.40;;;;;;;17.43;52.07;100206.72;104849;1276;61313;-72
2022/04/22 11:14:24;;;;;;;12.80;7.20;;;;;;;17.80;51.55;100204.45;105137;1274;61263;-71
2022/04/22 11:16:51;;;;;;;8.30;5.90;;;;;;;18.05;49.90;100204.10;105074;1273;76522;-73
2022/04/22 11:19:18;;;;;;;9.90;5.90;;;;;;;18.11;49.65;100204.82;105064;1273;71124;-73
2022/04/22 11:21:58;;;;;;;7.80;6.20;;;;;;;18.08;49.63;100203.35;104842;1274;61289;-71
2022/04/22 11:24:29;;;;;;;7.40;5.80;;;;;;;17.96;49.69;100196.66;105035;1275;61739;-73
2022/04/22 11:27:06;;;;;;;10.90;7.20;;;;;;;17.82;49.94;100196.98;104867;1276;61210;-72
2022/04/22 11:29:33;;;;;;;9.70;7.10;;;;;;;17.72;50.04;100194.67;104843;1276;75945;-74
2022/04/22 11:32:19;;;;;;;13.80;6.90;;;;;;;17.82;49.92;100192.48;104898;1276;70408;-70
2022/04/22 11:35:08;;;;;;;7.80;6.10;;;;;;;17.98;49.51;100191.75;104889;1275;76065;-71
2022/04/22 11:37:37;;;;;;;8.10;5.30;;;;;;;18.18;49.87;100189.34;104859;1273;61246;-72
2022/04/22 11:40:08;;;;;;;6.50;4.30;;;;;;;18.33;49.31;100183.23;105103;1273;61243;-71
2022/04/22 11:42:43;;;;;;;5.60;4.50;;;;;;;18.44;48.77;100174.44;104956;1274;74993;-72
2022/04/22 11:45:13;;;;;;;11.00;5.50;;;;;;;18.52;48.84;100169.27;104920;1276;71809;-74
2022/04/22 11:47:41;;;;;;;6.60;4.80;;;;;;;18.53;48.62;100170.42;105165;1274;73093;-73
2022/04/22 11:50:09;;;;;;;6.70;4.80;;;;;;;18.53;48.55;100171.20;105003;1274;62644;-71
2022/04/22 11:52:36;;;;;;;8.50;4.60;;;;;;;18.64;48.68;100171.73;105140;1274;61231;-72
2022/04/22 11:55:08;;;;;;;6.30;4.40;;;;;;;18.75;48.47;100172.20;105331;1274;74941;-75
2022/04/22 11:57:39;;;;;;;5.40;3.40;;;;;;;18.85;47.81;100166.75;105097;1274;72659;-72
2022/04/22 12:05:46;;;;;;;8.80;4.70;;;;;;;18.51;48.19;100164.20;104910;1276;61369;-71
2022/04/22 12:08:15;;;;;;;6.10;4.00;;;;;;;18.30;48.31;100161.06;105076;1274;73824;-73
2022/04/22 12:10:46;;;;;;;6.00;4.50;;;;;;;17.92;49.11;100160.55;105183;1276;70548;-70
2022/04/22 12:13:14;;;;;;;6.60;4.20;;;;;;;17.55;50.21;100162.68;105561;1275;74158;-72
2022/04/22 12:15:46;;;;;;;8.40;4.50;;;;;;;17.31;50.95;100163.00;104819;1276;61321;-72
2022/04/22 12:18:33;;;;;;;8.40;4.50;;;;;;;17.10;51.32;100157.85;104986;1274;61244;-70
2022/04/22 12:21:00;;;;;;;4.70;3.20;;;;;;;16.95;51.97;100158.19;105100;1273;76068;-70
2022/04/22 12:23:36;;;;;;;5.20;4.40;;;;;;;16.88;52.03;100154.58;105051;1275;71298;-71
2022/04/22 12:26:20;;;;;;;7.90;3.40;;;;;;;16.93;52.42;100149.02;105023;1274;73082;-71
2022/04/22 12:28:58;;;;;;;8.40;4.20;;;;;;;17.49;51.95;100138.67;104962;1275;61358;-72
2022/04/22 12:31:26;;;;;;;6.70;3.40;;;;;;;18.04;50.24;100133.06;105003;1276;61340;-72
2022/04/22 12:34:25;;;;;;;5.80;3.60;;;;;;;18.76;48.63;100127.30;104976;1276;75073;-71
2022/04/22 12:36:54;;;;;;;7.80;4.20;;;;;;;19.25;47.16;100134.45;104849;1274;71587;-72